Time;durP1;ratioP1;P1;durP2;ratioP2;P2;SDS_P1;SDS_P2;PMS_P1;PMS_P2;Temp;Humidity;BMP_temperature;BMP_pressure;BME280_temperature;BME280_humidity;BME280_pressure;Samples;Min_cycle;Max_cycle;Signal;HPM_P1;HPM_P2
2021/04/22 00:01:29;;;;;;;7.70;3.90;;;6.70;99.90;;;;;;20908654;28;20464;-75
2021/04/22 00:11:29;;;;;;;5.67;3.47;;;6.40;99.90;;;;;;20909267;28;20086;-75
2021/04/22 00:21:31;;;;;;;6.50;3.63;;;6.30;99.90;;;;;;20908889;28;20029;-74
2021/04/22 00:31:31;;;;;;;6.17;3.80;;;6.00;99.90;;;;;;20907413;28;20040;-75
2021/04/22 00:41:32;;;;;;;10.93;4.50;;;5.90;99.90;;;;;;20907654;28;20510;-75
2021/04/22 00:51:33;;;;;;;6.17;4.17;;;5.70;99.90;;;;;;20907175;28;20055;-75
2021/04/22 01:01:34;;;;;;;5.40;3.87;;;5.60;99.90;;;;;;20907349;28;20609;-75
2021/04/22 01:11:36;;;;;;;6.63;3.90;;;5.40;99.90;;;;;;20906464;28;20049;-75
2021/04/22 01:21:36;;;;;;;7.40;3.50;;;5.50;99.90;;;;;;20906174;28;20032;-75
2021/04/22 01:31:37;;;;;;;6.33;4.13;;;5.50;99.90;;;;;;20905202;28;20087;-75
2021/04/22 01:41:39;;;;;;;7.63;4.73;;;5.40;99.90;;;;;;20912263;28;20483;-75
2021/04/22 01:51:40;;;;;;;6.65;4.18;;;5.20;99.90;;;;;;20920131;28;20025;-75
2021/04/22 02:01:41;;;;;;;7.03;3.80;;;5.10;99.90;;;;;;20918798;28;20606;-74
2021/04/22 02:11:41;;;;;;;10.07;5.40;;;4.90;99.90;;;;;;20919046;28;20033;-74
2021/04/22 02:21:42;;;;;;;7.73;4.23;;;4.90;99.90;;;;;;20917175;28;20040;-75
2021/04/22 02:31:43;;;;;;;9.33;4.80;;;4.70;99.90;;;;;;20917291;28;20028;-74
2021/04/22 02:41:44;;;;;;;8.90;5.23;;;4.50;99.90;;;;;;20916854;28;20037;-75
2021/04/22 02:51:45;;;;;;;7.63;4.43;;;4.40;99.90;;;;;;20915253;28;20029;-75
2021/04/22 03:01:46;;;;;;;7.53;4.93;;;4.40;99.90;;;;;;20943772;28;20514;-74
2021/04/22 03:11:47;;;;;;;9.23;5.47;;;4.40;99.90;;;;;;20967384;28;20063;-74
2021/04/22 03:21:48;;;;;;;8.33;5.10;;;4.40;99.90;;;;;;20927375;28;20028;-74
2021/04/22 03:31:48;;;;;;;8.53;5.33;;;4.10;99.90;;;;;;20864583;23;20069;-76
2021/04/22 03:41:49;;;;;;;9.27;5.60;;;4.00;99.90;;;;;;20831826;28;20104;-77
2021/04/22 03:51:50;;;;;;;9.00;5.70;;;3.70;99.90;;;;;;20807366;28;20136;-76
2021/04/22 04:01:51;;;;;;;13.60;8.00;;;4.00;99.90;;;;;;20809396;28;20375;-77
2021/04/22 04:11:52;;;;;;;9.03;5.67;;;3.90;99.90;;;;;;20795925;28;20067;-75
2021/04/22 04:21:53;;;;;;;10.60;6.37;;;3.60;99.90;;;;;;20844758;28;20120;-77
2021/04/22 04:31:54;;;;;;;13.67;6.43;;;3.50;99.90;;;;;;20825569;28;20510;-76
2021/04/22 04:41:55;;;;;;;9.30;5.70;;;3.50;99.90;;;;;;20825721;28;20029;-76
2021/04/22 04:51:55;;;;;;;14.53;6.77;;;3.40;99.90;;;;;;20824829;28;20327;-75
2021/04/22 05:01:56;;;;;;;10.03;5.80;;;3.30;99.90;;;;;;20824814;28;20037;-77
2021/04/22 05:11:57;;;;;;;11.33;6.27;;;3.50;99.90;;;;;;20825854;28;20068;-76
2021/04/22 05:21:58;;;;;;;9.17;5.73;;;3.80;99.90;;;;;;20840854;28;20082;-77
2021/04/22 05:31:59;;;;;;;14.00;6.57;;;3.90;99.90;;;;;;20839152;28;20025;-76
2021/04/22 05:41:59;;;;;;;10.67;6.80;;;4.10;99.90;;;;;;20839798;28;20025;-76
2021/04/22 05:52:00;;;;;;;10.23;6.70;;;4.70;99.90;;;;;;20838666;28;20029;-75
2021/04/22 06:02:02;;;;;;;15.23;8.03;;;5.50;99.90;;;;;;20838970;28;20468;-76
2021/04/22 06:12:05;;;;;;;;;;;6.00;99.90;;;;;;20819515;28;20045;-76
2021/04/22 06:22:06;;;;;;;13.30;7.35;;;6.60;99.90;;;;;;20818562;28;19921;-77
2021/04/22 06:32:08;;;;;;;7.17;4.73;;;7.20;99.90;;;;;;20834363;28;20061;-76
2021/04/22 06:42:09;;;;;;;;;;;8.00;99.90;;;;;;20817743;28;20038;-77
2021/04/22 06:52:09;;;;;;;12.25;7.03;;;9.00;99.90;;;;;;20833516;28;19978;-77
2021/04/22 07:02:10;;;;;;;12.57;7.40;;;9.20;99.90;;;;;;20814866;28;20037;-77
2021/04/22 07:12:11;;;;;;;9.60;6.83;;;9.30;99.90;;;;;;20814723;28;20063;-76
2021/04/22 07:22:12;;;;;;;11.00;6.37;;;10.10;99.90;;;;;;20832722;28;20029;-77
2021/04/22 07:32:14;;;;;;;15.70;8.45;;;11.00;99.90;;;;;;20830514;28;20033;-76
2021/04/22 07:42:15;;;;;;;14.25;7.90;;;11.80;99.90;;;;;;20810611;28;20630;-76
2021/04/22 07:52:16;;;;;;;11.00;6.60;;;11.90;99.90;;;;;;20811129;28;20041;-77
2021/04/22 08:02:17;;;;;;;8.38;5.70;;;12.40;99.90;;;;;;20826672;28;20395;-76
2021/04/22 08:12:18;;;;;;;10.05;6.47;;;12.40;99.90;;;;;;20808579;28;20026;-76
2021/04/22 08:22:19;;;;;;;10.95;5.88;;;13.20;99.90;;;;;;20826244;28;20044;-77
2021/04/22 08:32:20;;;;;;;9.90;5.65;;;13.90;99.90;;;;;;20825933;28;20025;-77
2021/04/22 08:42:21;;;;;;;9.38;5.90;;;14.20;99.90;;;;;;20825386;28;20037;-75
2021/04/22 08:52:23;;;;;;;13.17;5.70;;;13.90;99.90;;;;;;20807289;28;20069;-75
2021/04/22 09:02:24;;;;;;;8.60;5.90;;;14.00;99.90;;;;;;20836700;28;20060;-75
2021/04/22 09:12:26;;;;;;;12.88;6.28;;;13.20;99.90;;;;;;20848805;28;20643;-75
2021/04/22 09:22:52;;;;;;;11.80;7.13;;;14.70;99.90;;;;;;20845486;28;20108;-75
2021/04/22 09:32:53;;;;;;;10.80;7.18;;;15.20;99.90;;;;;;20803066;28;20446;-76
2021/04/22 09:42:57;;;;;;;11.60;7.43;;;15.70;99.90;;;;;;20821235;28;20030;-76
2021/04/22 09:53:03;;;;;;;14.68;9.60;;;15.80;99.90;;;;;;20822723;28;20037;-76
2021/04/22 10:03:10;;;;;;;11.45;7.88;;;17.60;99.90;;;;;;20829639;28;20022;-76
2021/04/22 10:13:11;;;;;;;15.40;10.52;;;19.10;99.90;;;;;;20837087;28;20623;-76
2021/04/22 10:23:13;;;;;;;15.47;10.13;;;18.10;99.90;;;;;;20835761;28;20025;-76
2021/04/22 10:33:14;;;;;;;14.70;9.83;;;18.40;99.90;;;;;;20834879;28;20124;-76
2021/04/22 10:43:26;;;;;;;16.40;11.17;;;19.00;99.90;;;;;;20816370;28;20029;-76
2021/04/22 10:53:28;;;;;;;15.97;10.27;;;18.30;99.90;;;;;;20832609;28;20110;-75
2021/04/22 11:03:32;;;;;;;16.85;11.15;;;17.80;99.90;;;;;;20832759;28;20037;-75
2021/04/22 11:13:33;;;;;;;14.10;9.50;;;17.60;99.90;;;;;;20831645;28;20064;-75
2021/04/22 11:23:42;;;;;;;10.25;5.90;;;18.20;99.90;;;;;;20813453;28;20034;-76
2021/04/22 11:33:45;;;;;;;11.93;6.20;;;16.70;99.90;;;;;;20812813;28;20037;-75
2021/04/22 11:43:46;;;;;;;13.88;6.50;;;15.20;99.90;;;;;;20833963;28;20092;-75
2021/04/22 11:53:47;;;;;;;7.50;5.50;;;14.50;99.90;;;;;;20828903;28;20033;-75
2021/04/22 12:03:49;;;;;;;6.17;3.93;;;14.20;99.90;;;;;;20827596;28;20108;-75
2021/04/22 12:13:50;;;;;;;7.33;4.23;;;14.20;99.90;;;;;;20809207;28;20125;-75
2021/04/22 12:23:58;;;;;;;12.98;6.10;;;14.20;99.90;;;;;;20826454;28;20128;-75
2021/04/22 12:34:19;;;;;;;10.27;6.90;;;14.40;99.90;;;;;;20808184;28;20033;-75
2021/04/22 12:44:20;;;;;;;8.18;5.95;;;14.40;99.90;;;;;;20825390;28;20571;-75
2021/04/22 12:54:24;;;;;;;10.18;6.45;;;15.70;99.90;;;;;;20825240;28;20110;-76
2021/04/22 13:04:25;;;;;;;8.23;5.60;;;14.80;99.90;;;;;;20809138;28;20029;-75
2021/04/22 13:14:28;;;;;;;5.67;4.07;;;14.30;99.90;;;;;;20806259;28;20030;-74
2021/04/22 13:24:36;;;;;;;9.35;4.85;;;13.60;99.90;;;;;;20806057;28;20411;-75
2021/04/22 13:34:42;;;;;;;9.90;6.20;;;13.80;99.90;;;;;;20793295;28;20706;-75
2021/04/22 13:44:43;;;;;;;6.05;3.30;;;14.00;99.90;;;;;;20825441;28;20447;-75
2021/04/22 13:54:46;;;;;;;7.68;4.60;;;14.80;99.90;;;;;;20820301;28;20029;-75
2021/04/22 14:04:57;;;;;;;6.72;4.18;;;13.70;99.90;;;;;;20820839;28;20037;-75
2021/04/22 14:15:07;;;;;;;5.50;3.92;;;14.70;99.90;;;;;;20818640;28;20037;-75
2021/04/22 14:25:09;;;;;;;16.88;7.18;;;14.90;99.90;;;;;;20782445;28;20041;-75
2021/04/22 14:35:10;;;;;;;7.93;5.05;;;15.20;99.90;;;;;;20798327;28;20400;-75
2021/04/22 14:45:11;;;;;;;5.60;3.77;;;15.50;99.90;;;;;;20814155;28;20120;-75
2021/04/22 14:55:12;;;;;;;5.30;3.50;;;16.90;99.90;;;;;;20813355;28;20076;-75
2021/04/22 15:05:14;;;;;;;5.57;3.77;;;17.70;99.90;;;;;;20820184;28;20049;-75
2021/04/22 15:15:15;;;;;;;5.83;3.70;;;17.90;99.90;;;;;;20812565;28;20047;-76
2021/04/22 15:25:16;;;;;;;4.50;3.37;;;18.70;99.90;;;;;;20843208;22;20044;-77
2021/04/22 15:35:21;;;;;;;7.00;4.47;;;18.70;99.90;;;;;;20912897;28;20044;-78
2021/04/22 15:45:24;;;;;;;10.50;4.70;;;19.00;99.90;;;;;;20908220;28;20503;-77
2021/04/22 15:55:28;;;;;;;7.35;5.07;;;19.00;99.90;;;;;;20900095;28;20509;-75
2021/04/22 16:05:29;;;;;;;11.73;4.22;;;17.90;99.90;;;;;;20870798;28;20929;-76
2021/04/22 16:15:29;;;;;;;12.40;4.40;;;17.30;99.90;;;;;;20870482;28;20075;-75
2021/04/22 16:25:30;;;;;;;13.75;4.45;;;17.40;99.90;;;;;;20893677;28;20071;-75
2021/04/22 16:35:31;;;;;;;10.80;6.07;;;17.30;99.90;;;;;;20891070;28;20484;-75
2021/04/22 16:45:32;;;;;;;13.15;6.95;;;16.40;99.90;;;;;;20873290;28;20037;-76
2021/04/22 16:55:33;;;;;;;14.77;7.32;;;16.30;99.90;;;;;;20891231;28;20078;-76
2021/04/22 17:05:35;;;;;;;13.05;8.70;;;16.20;99.90;;;;;;20877790;28;20033;-76
2021/04/22 17:15:36;;;;;;;14.07;6.77;;;16.10;99.90;;;;;;20827130;28;20429;-76
2021/04/22 17:25:37;;;;;;;18.00;7.73;;;16.20;99.90;;;;;;20822308;28;20037;-75
2021/04/22 17:35:38;;;;;;;13.07;7.67;;;16.00;99.90;;;;;;20847866;28;20063;-76
2021/04/22 17:45:39;;;;;;;11.15;7.07;;;15.70;99.90;;;;;;20837461;28;20041;-76
2021/04/22 17:55:42;;;;;;;16.87;8.47;;;15.40;99.90;;;;;;20902278;28;20241;-75
2021/04/22 18:05:43;;;;;;;18.85;11.18;;;15.20;99.90;;;;;;20874261;28;20389;-75
2021/04/22 18:15:45;;;;;;;22.58;13.63;;;14.80;99.90;;;;;;20819132;28;20037;-75
2021/04/22 18:25:47;;;;;;;26.30;15.00;;;14.60;99.90;;;;;;20814331;28;20733;-75
2021/04/22 18:35:49;;;;;;;25.00;15.38;;;14.40;99.90;;;;;;20817475;28;20087;-75
2021/04/22 18:45:51;;;;;;;22.08;13.48;;;14.20;99.90;;;;;;20820740;28;20030;-75
2021/04/22 18:55:52;;;;;;;28.67;13.63;;;14.10;99.90;;;;;;20820885;28;20025;-75
2021/04/22 19:05:53;;;;;;;22.70;13.13;;;14.20;99.90;;;;;;20856875;28;20080;-75
2021/04/22 19:15:54;;;;;;;21.10;12.70;;;14.10;99.90;;;;;;20874529;28;20063;-75
2021/04/22 19:25:56;;;;;;;12.68;8.93;;;14.00;99.90;;;;;;20894061;28;20076;-75
2021/04/22 19:35:57;;;;;;;13.73;6.03;;;13.50;99.90;;;;;;20900804;28;20072;-75
2021/04/22 19:46:02;;;;;;;11.53;3.83;;;13.20;99.90;;;;;;20895994;28;20064;-74
2021/04/22 19:56:03;;;;;;;10.60;3.13;;;12.80;99.90;;;;;;20874434;28;20048;-75
2021/04/22 20:06:08;;;;;;;10.33;2.73;;;12.50;99.90;;;;;;20835453;28;20095;-74
2021/04/22 20:16:09;;;;;;;7.10;2.25;;;12.40;99.90;;;;;;20828102;28;20666;-74
2021/04/22 20:26:12;;;;;;;6.85;2.00;;;12.20;99.90;;;;;;20826513;28;20108;-73
2021/04/22 20:36:13;;;;;;;7.07;2.00;;;11.80;99.90;;;;;;20825340;28;20543;-74
2021/04/22 20:46:13;;;;;;;7.25;2.08;;;11.40;99.00;;;;;;20824927;28;20084;-74
2021/04/22 20:56:14;;;;;;;7.13;2.03;;;11.20;97.10;;;;;;20825336;28;20021;-74
2021/04/22 21:06:15;;;;;;;6.90;2.10;;;10.90;97.00;;;;;;20823425;28;20051;-74
2021/04/22 21:16:17;;;;;;;7.23;2.33;;;10.20;96.30;;;;;;20823625;28;20029;-73
2021/04/22 21:26:19;;;;;;;8.13;2.47;;;10.10;95.30;;;;;;20857600;23;20402;-74
2021/04/22 21:36:20;;;;;;;6.25;1.73;;;10.00;95.60;;;;;;20988895;28;20286;-74
2021/04/22 21:46:22;;;;;;;7.67;1.93;;;9.70;94.80;;;;;;20988968;28;20073;-74
2021/04/22 21:56:23;;;;;;;5.90;1.88;;;9.60;94.00;;;;;;20991843;28;20036;-74
2021/04/22 22:06:24;;;;;;;9.27;2.43;;;9.50;94.40;;;;;;21002838;28;20044;-74
2021/04/22 22:16:25;;;;;;;4.87;2.37;;;9.30;94.60;;;;;;21002288;28;20456;-75
2021/04/22 22:26:26;;;;;;;5.20;1.75;;;8.80;96.60;;;;;;21000199;28;20132;-75
2021/04/22 22:36:27;;;;;;;7.63;1.77;;;8.60;97.20;;;;;;21000716;28;20055;-75
2021/04/22 22:46:28;;;;;;;5.87;2.03;;;8.40;97.70;;;;;;20999876;28;20085;-75
2021/04/22 22:56:29;;;;;;;8.67;1.83;;;8.20;98.00;;;;;;20999227;28;20036;-76
2021/04/22 23:06:30;;;;;;;4.50;1.43;;;8.00;99.40;;;;;;20997730;28;20028;-76
2021/04/22 23:16:31;;;;;;;7.60;2.07;;;7.90;99.50;;;;;;20997501;28;20032;-76
2021/04/22 23:26:32;;;;;;;6.93;2.20;;;7.90;98.20;;;;;;20997052;28;20557;-76
2021/04/22 23:36:32;;;;;;;6.50;1.90;;;8.10;98.20;;;;;;20994781;28;20032;-76
2021/04/22 23:46:34;;;;;;;2.70;1.33;;;7.90;99.30;;;;;;20995453;28;20032;-75
2021/04/22 23:56:35;;;;;;;5.88;2.17;;;7.50;99.90;;;;;;20992917;28;20044;-75
